Time;durP1;ratioP1;P1;durP2;ratioP2;P2;SDS_P1;SDS_P2;PMS_P1;PMS_P2;Temp;Humidity;BMP_temperature;BMP_pressure;BME280_temperature;BME280_humidity;BME280_pressure;Samples;Min_cycle;Max_cycle;Signal;HPM_P1;HPM_P2
2022/11/04 00:01:49;;;;;;;0.53;0.53;;;;;;;10.54;100.00;95972.31;5071147;28;20195;-59
2022/11/04 00:04:20;;;;;;;1.20;0.40;;;;;;;10.46;100.00;95962.53;5071268;28;20267;-60
2022/11/04 00:06:47;;;;;;;0.50;0.50;;;;;;;10.50;100.00;95969.16;5074798;28;20293;-59
2022/11/04 00:09:16;;;;;;;0.43;0.27;;;;;;;10.54;100.00;95951.16;5087114;28;20217;-59
2022/11/04 00:14:28;;;;;;;0.30;0.30;;;;;;;10.50;100.00;95966.53;5080454;28;20687;-59
2022/11/04 00:30:42;;;;;;;1.07;0.57;;;;;;;10.32;100.00;95939.34;5057302;28;20627;-60
2022/11/04 00:33:25;;;;;;;0.93;0.70;;;;;;;10.32;100.00;95940.19;5070348;28;20571;-59
2022/11/04 00:35:55;;;;;;;0.60;0.57;;;;;;;10.33;100.00;95954.22;5070591;28;20198;-59
2022/11/04 00:38:23;;;;;;;0.83;0.67;;;;;;;10.33;100.00;95943.66;5073125;28;20203;-58
2022/11/04 00:40:50;;;;;;;0.70;0.70;;;;;;;10.28;100.00;95949.41;5070743;28;20210;-60
2022/11/04 00:43:16;;;;;;;0.50;0.50;;;;;;;10.27;100.00;95949.56;5071526;28;20710;-59
2022/11/04 00:45:43;;;;;;;0.57;0.50;;;;;;;10.27;100.00;95950.38;5073436;28;20289;-59
2022/11/04 00:48:10;;;;;;;0.80;0.60;;;;;;;10.25;100.00;95947.06;5072431;28;20241;-58
2022/11/04 00:50:39;;;;;;;0.30;0.30;;;;;;;10.21;100.00;95936.97;5073494;28;20271;-59
2022/11/04 00:53:07;;;;;;;0.50;0.50;;;;;;;10.21;100.00;95927.25;5072955;28;20218;-60
2022/11/04 00:55:33;;;;;;;0.47;0.47;;;;;;;10.22;100.00;95920.16;5071849;28;20744;-60
2022/11/04 00:58:00;;;;;;;0.30;0.30;;;;;;;10.24;100.00;95918.16;5076149;28;20375;-59
2022/11/04 01:00:28;;;;;;;0.20;0.20;;;;;;;10.24;100.00;95908.41;5075997;28;20199;-60
2022/11/04 01:02:59;;;;;;;1.60;0.50;;;;;;;10.24;100.00;95910.22;5074816;28;20217;-58
2022/11/04 01:05:27;;;;;;;0.47;0.47;;;;;;;10.22;100.00;95904.28;5074613;28;20650;-60
2022/11/04 01:07:53;;;;;;;0.50;0.50;;;;;;;10.18;100.00;95914.34;5074669;28;20198;-60
2022/11/04 01:10:22;;;;;;;1.43;0.40;;;;;;;10.18;100.00;95918.81;5074054;28;21235;-59
2022/11/04 01:12:48;;;;;;;1.07;0.80;;;;;;;10.18;100.00;95924.09;5074217;28;20317;-60
2022/11/04 01:15:15;;;;;;;1.80;0.40;;;;;;;10.18;100.00;95930.19;5073942;28;20230;-60
2022/11/04 01:17:42;;;;;;;0.33;0.33;;;;;;;10.06;100.00;95936.69;5074446;28;20289;-59
2022/11/04 01:20:10;;;;;;;0.30;0.30;;;;;;;10.04;100.00;95924.66;5074019;28;20321;-59
2022/11/04 01:22:36;;;;;;;0.33;0.33;;;;;;;10.01;100.00;95915.22;5074049;28;20206;-60
2022/11/04 01:25:04;;;;;;;0.67;0.40;;;;;;;9.99;100.00;95923.28;5074095;28;20222;-59
2022/11/04 01:27:33;;;;;;;0.30;0.30;;;;;;;9.99;100.00;95925.94;5074170;28;20289;-60
2022/11/04 01:29:59;;;;;;;0.20;0.20;;;;;;;9.96;100.00;95931.53;5074005;28;20286;-59
2022/11/04 01:32:30;;;;;;;0.87;0.50;;;;;;;9.89;100.00;95941.06;5073752;28;20288;-59
2022/11/04 01:34:59;;;;;;;0.40;0.40;;;;;;;9.88;100.00;95939.41;5074186;28;20527;-58
2022/11/04 01:37:26;;;;;;;2.93;0.40;;;;;;;9.92;100.00;95939.91;5073578;28;20207;-60
2022/11/04 01:39:53;;;;;;;0.43;0.43;;;;;;;9.87;100.00;95943.06;5074032;28;20298;-59
2022/11/04 01:42:21;;;;;;;0.43;0.43;;;;;;;9.83;100.00;95946.97;5073663;28;20586;-60
2022/11/04 01:44:54;;;;;;;2.80;0.47;;;;;;;9.84;100.00;95948.66;5073552;28;20222;-60
2022/11/04 01:47:25;;;;;;;0.97;0.50;;;;;;;9.84;100.00;95945.19;5073145;28;20298;-59
2022/11/04 01:49:54;;;;;;;1.43;0.43;;;;;;;9.78;100.00;95937.84;5073137;28;20309;-59
2022/11/04 01:52:26;;;;;;;0.30;0.30;;;;;;;9.81;100.00;95954.22;5073488;28;20310;-59
2022/11/04 01:54:55;;;;;;;0.60;0.47;;;;;;;9.78;100.00;95933.41;5073350;28;20602;-60
2022/11/04 01:57:26;;;;;;;0.30;0.30;;;;;;;9.78;100.00;95916.72;5073481;28;20242;-59
2022/11/04 01:59:54;;;;;;;0.33;0.33;;;;;;;9.81;100.00;95917.25;5073625;28;20227;-59
2022/11/04 02:02:22;;;;;;;0.60;0.60;;;;;;;9.86;100.00;95904.41;5072984;28;20614;-59
2022/11/04 02:04:48;;;;;;;0.50;0.50;;;;;;;9.84;100.00;95905.56;5073271;28;20207;-59
2022/11/04 02:07:16;;;;;;;0.83;0.60;;;;;;;9.81;100.00;95903.25;5072797;28;20237;-60
2022/11/04 02:09:43;;;;;;;0.30;0.30;;;;;;;9.78;100.00;95893.78;5073058;28;20562;-58
2022/11/04 02:14:56;;;;;;;0.40;0.40;;;;;;;9.79;100.00;95902.56;5073048;28;20265;-58
2022/11/04 02:17:34;;;;;;;0.40;0.40;;;;;;;9.79;100.00;95900.75;5073041;28;20295;-59
2022/11/04 02:20:29;;;;;;;1.13;0.57;;;;;;;9.82;100.00;95896.94;5072868;28;20186;-59
2022/11/04 02:23:24;;;;;;;0.50;0.50;;;;;;;9.79;100.00;95892.81;5048568;28;20289;-60
2022/11/04 02:26:18;;;;;;;0.87;0.70;;;;;;;9.82;100.00;95897.78;5072580;28;20219;-60
2022/11/04 02:29:10;;;;;;;0.40;0.40;;;;;;;9.88;100.00;95891.88;5074812;28;20286;-59
2022/11/04 02:31:42;;;;;;;0.50;0.50;;;;;;;9.83;100.00;95894.16;5079016;28;20167;-60
2022/11/04 02:34:13;;;;;;;0.60;0.40;;;;;;;9.86;100.00;95885.09;5094490;28;20460;-61
2022/11/04 02:36:43;;;;;;;0.50;0.50;;;;;;;9.86;100.00;95887.75;5086116;28;20213;-60
2022/11/04 02:39:19;;;;;;;0.97;0.60;;;;;;;9.85;100.00;95889.53;5077674;28;20207;-59
2022/11/04 02:41:51;;;;;;;1.03;0.50;;;;;;;9.89;100.00;95893.53;5072790;28;20238;-59
2022/11/04 02:44:22;;;;;;;0.30;0.30;;;;;;;9.92;100.00;95885.28;5072670;28;20213;-59
2022/11/04 02:46:51;;;;;;;0.40;0.33;;;;;;;9.94;100.00;95896.53;5072401;28;20289;-58
2022/11/04 02:49:21;;;;;;;0.50;0.50;;;;;;;9.92;100.00;95880.00;5072297;28;20260;-58
2022/11/04 02:51:50;;;;;;;1.10;0.60;;;;;;;9.88;100.00;95878.66;5072335;28;20673;-59
2022/11/04 02:54:21;;;;;;;0.70;0.30;;;;;;;9.89;100.00;95887.41;5072472;28;20229;-59
2022/11/04 02:56:50;;;;;;;0.67;0.50;;;;;;;9.89;100.00;95882.97;5071836;28;20293;-59
2022/11/04 02:59:22;;;;;;;1.73;0.47;;;;;;;9.91;100.00;95883.66;5072345;28;20290;-59
2022/11/04 03:01:50;;;;;;;0.70;0.53;;;;;;;9.88;100.00;95886.59;5072573;28;20199;-59
2022/11/04 03:04:20;;;;;;;0.40;0.40;;;;;;;9.93;100.00;95878.19;5072596;28;20293;-60
2022/11/04 03:06:49;;;;;;;0.60;0.50;;;;;;;9.94;100.00;95887.78;5072294;28;20199;-58
2022/11/04 03:09:18;;;;;;;0.80;0.57;;;;;;;9.95;100.00;95887.63;5071885;28;20241;-57
2022/11/04 03:11:46;;;;;;;0.47;0.47;;;;;;;9.96;100.00;95878.72;5073106;28;20278;-58
2022/11/04 03:14:16;;;;;;;1.50;0.57;;;;;;;9.95;100.00;95865.69;5072271;28;20614;-58
2022/11/04 03:16:46;;;;;;;0.70;0.40;;;;;;;9.99;100.00;95872.28;5072299;28;20260;-58
2022/11/04 03:19:17;;;;;;;0.40;0.40;;;;;;;9.99;100.00;95865.19;5071124;28;20328;-60
2022/11/04 03:21:48;;;;;;;0.50;0.50;;;;;;;9.96;100.00;95862.03;5072269;28;20230;-58
2022/11/04 03:24:15;;;;;;;0.70;0.37;;;;;;;9.95;100.00;95863.84;5071398;28;20202;-59
2022/11/04 03:26:44;;;;;;;0.40;0.40;;;;;;;9.89;100.00;95864.50;5071016;28;20297;-60
2022/11/04 03:29:22;;;;;;;0.43;0.43;;;;;;;9.90;100.00;95868.78;5072893;28;20285;-58
2022/11/04 03:31:57;;;;;;;1.93;0.50;;;;;;;9.92;100.00;95882.66;5074164;28;20225;-58
2022/11/04 03:34:24;;;;;;;0.63;0.60;;;;;;;9.90;100.00;95897.84;5070906;28;20340;-59
2022/11/04 03:36:51;;;;;;;0.87;0.50;;;;;;;9.89;100.00;95896.19;5071247;28;20532;-58
2022/11/04 03:39:18;;;;;;;0.30;0.30;;;;;;;9.83;100.00;95894.16;5071471;28;20706;-60
2022/11/04 03:41:49;;;;;;;0.63;0.60;;;;;;;9.84;100.00;95889.72;5071908;28;20218;-59
2022/11/04 03:44:16;;;;;;;0.40;0.40;;;;;;;9.87;100.00;95890.25;5071879;28;20273;-59
2022/11/04 03:46:42;;;;;;;0.30;0.30;;;;;;;9.85;100.00;95889.53;5071690;28;20293;-59
2022/11/04 03:49:12;;;;;;;0.50;0.50;;;;;;;9.87;100.00;95895.53;5071259;28;20325;-58
2022/11/04 03:51:38;;;;;;;1.17;0.60;;;;;;;9.88;100.00;95893.72;5071721;28;20785;-59
2022/11/04 03:54:08;;;;;;;0.80;0.70;;;;;;;9.87;100.00;95895.53;5071563;28;20330;-57
2022/11/04 03:57:04;;;;;;;1.20;0.30;;;;;;;9.78;100.00;95892.97;5071252;28;20631;-59
2022/11/04 03:59:47;;;;;;;0.43;0.43;;;;;;;9.81;100.00;95900.59;5065764;28;20230;-60
2022/11/04 04:02:17;;;;;;;0.40;0.40;;;;;;;9.80;100.00;95898.94;5071243;28;20248;-59
2022/11/04 04:04:53;;;;;;;1.07;0.63;;;;;;;9.82;100.00;95887.22;5071387;28;20277;-60
2022/11/04 04:07:26;;;;;;;0.23;0.23;;;;;;;9.81;100.00;95890.03;5070571;28;20588;-59
2022/11/04 04:09:57;;;;;;;0.27;0.27;;;;;;;9.81;100.00;95885.56;5071444;28;20225;-58
2022/11/04 04:12:29;;;;;;;0.60;0.60;;;;;;;9.78;100.00;95885.88;5071690;28;20198;-59
2022/11/04 04:15:02;;;;;;;0.40;0.40;;;;;;;9.73;100.00;95872.34;5071226;28;20206;-60
2022/11/04 04:17:32;;;;;;;0.50;0.50;;;;;;;9.66;100.00;95866.03;5071636;28;20283;-59
2022/11/04 04:20:02;;;;;;;0.43;0.43;;;;;;;9.64;100.00;95862.69;5071639;28;20288;-58
2022/11/04 04:22:32;;;;;;;0.77;0.60;;;;;;;9.64;100.00;95846.84;5071290;28;20298;-60
2022/11/04 04:27:45;;;;;;;0.50;0.50;;;;;;;9.54;100.00;95822.41;5070743;28;20205;-58
2022/11/04 04:30:13;;;;;;;0.43;0.43;;;;;;;9.53;100.00;95827.84;5071452;28;20293;-59
2022/11/04 04:32:42;;;;;;;1.87;0.60;;;;;;;9.55;100.00;95828.50;5073669;28;20285;-59
2022/11/04 04:44:58;;;;;;;1.70;0.63;;;;;;;9.39;100.00;95859.06;5074134;28;20205;-58
2022/11/04 04:46:18;;;;;;;0.50;0.50;;;;;;;9.41;100.00;95845.75;5048514;28;20584;-59
2022/11/04 04:48:44;;;;;;;1.70;0.40;;;;;;;9.44;100.00;95840.16;5074209;28;20273;-59
2022/11/04 04:51:13;;;;;;;0.33;0.30;;;;;;;9.44;100.00;95837.50;5075882;28;20289;-60
2022/11/04 04:53:39;;;;;;;0.43;0.43;;;;;;;9.41;100.00;95833.38;5074472;28;20737;-59
2022/11/04 04:56:06;;;;;;;0.73;0.70;;;;;;;9.39;100.00;95826.59;5074455;28;20264;-59
2022/11/04 04:58:32;;;;;;;0.80;0.60;;;;;;;9.41;100.00;95824.63;5087717;28;20233;-58
2022/11/04 05:00:59;;;;;;;0.83;0.50;;;;;;;9.41;100.00;95822.00;5082154;28;20240;-60
2022/11/04 05:03:26;;;;;;;0.57;0.57;;;;;;;9.45;100.00;95810.16;5082958;28;20234;-60
2022/11/04 05:05:52;;;;;;;0.50;0.50;;;;;;;9.44;100.00;95817.22;5078773;28;20230;-59
2022/11/04 05:08:20;;;;;;;1.00;0.60;;;;;;;9.45;100.00;95804.88;5081843;28;20268;-60
2022/11/04 05:10:47;;;;;;;1.80;0.40;;;;;;;9.46;100.00;95795.94;5082572;28;20245;-59
2022/11/04 05:13:25;;;;;;;0.80;0.77;;;;;;;9.52;100.00;95794.50;5082081;28;20227;-58
2022/11/04 05:15:52;;;;;;;0.67;0.67;;;;;;;9.48;100.00;95788.72;5073739;28;20675;-59
2022/11/04 05:18:19;;;;;;;0.57;0.57;;;;;;;9.46;100.00;95795.94;5073777;28;20239;-59
2022/11/04 05:20:46;;;;;;;0.53;0.53;;;;;;;9.40;100.00;95793.94;5073786;28;20651;-62
2022/11/04 05:23:13;;;;;;;0.43;0.43;;;;;;;9.42;100.00;95792.00;5074269;28;20245;-60
2022/11/04 05:25:44;;;;;;;0.40;0.40;;;;;;;9.42;100.00;95784.09;5073490;28;20591;-59
2022/11/04 05:28:10;;;;;;;1.77;1.40;;;;;;;9.40;100.00;95780.75;5073559;28;20267;-59
2022/11/04 05:30:37;;;;;;;1.27;1.23;;;;;;;9.37;100.00;95776.63;5074148;28;20301;-59
2022/11/04 05:33:04;;;;;;;0.77;0.77;;;;;;;9.33;100.00;95785.84;5073502;28;20727;-58
2022/11/04 05:35:30;;;;;;;2.33;1.00;;;;;;;9.29;100.00;95784.47;5074059;28;20285;-59
2022/11/04 05:37:58;;;;;;;1.33;1.00;;;;;;;9.29;100.00;95794.19;5073444;28;20294;-60
2022/11/04 05:40:25;;;;;;;2.53;1.10;;;;;;;9.30;100.00;95780.03;5074072;28;20290;-59
2022/11/04 05:42:53;;;;;;;2.43;0.90;;;;;;;9.24;100.00;95768.31;5073477;28;20229;-59
2022/11/04 05:45:20;;;;;;;1.33;1.23;;;;;;;9.17;100.00;95782.28;5073199;28;20643;-58
2022/11/04 05:47:46;;;;;;;3.33;1.20;;;;;;;9.08;100.00;95780.56;5073238;28;20249;-60
2022/11/04 05:50:13;;;;;;;0.90;0.90;;;;;;;8.99;100.00;95777.88;5073139;28;20321;-59
2022/11/04 05:52:41;;;;;;;3.90;0.80;;;;;;;8.94;100.00;95779.31;5074106;28;20232;-59
2022/11/04 05:55:08;;;;;;;0.60;0.60;;;;;;;8.98;100.00;95789.41;5073154;28;20254;-58
2022/11/04 05:57:37;;;;;;;2.87;0.63;;;;;;;8.98;100.00;95792.03;5073359;28;20218;-59
2022/11/04 06:00:06;;;;;;;1.17;0.73;;;;;;;8.96;100.00;95790.53;5072936;28;20230;-59
2022/11/04 06:02:32;;;;;;;0.83;0.73;;;;;;;8.91;100.00;95798.91;5073400;28;20241;-59
2022/11/04 06:04:59;;;;;;;1.67;0.73;;;;;;;8.94;100.00;95803.88;5073454;28;20238;-59
2022/11/04 06:07:29;;;;;;;0.63;0.63;;;;;;;8.96;100.00;95809.81;5073343;28;20210;-59
2022/11/04 06:09:55;;;;;;;1.17;0.53;;;;;;;9.05;100.00;95813.34;5073345;28;20520;-59
2022/11/04 06:12:22;;;;;;;1.17;0.60;;;;;;;9.09;100.00;95825.25;5073409;28;20285;-59
2022/11/04 06:14:50;;;;;;;0.70;0.63;;;;;;;9.14;100.00;95828.22;5073203;28;20309;-59
2022/11/04 06:17:20;;;;;;;0.60;0.60;;;;;;;9.21;100.00;95834.53;5073766;28;20339;-59
2022/11/04 06:19:48;;;;;;;1.00;0.50;;;;;;;9.28;100.00;95840.84;5073071;28;20297;-58
2022/11/04 06:22:16;;;;;;;1.37;0.50;;;;;;;9.32;100.00;95822.91;5072507;28;20207;-60
2022/11/04 06:24:42;;;;;;;1.23;0.63;;;;;;;9.32;100.00;95822.91;5073022;28;20297;-59
2022/11/04 06:27:10;;;;;;;3.03;0.80;;;;;;;9.36;100.00;95819.81;5073024;28;20298;-60
2022/11/04 06:29:39;;;;;;;1.33;0.60;;;;;;;9.30;100.00;95817.81;5072350;28;20230;-59
2022/11/04 06:32:07;;;;;;;4.33;1.03;;;;;;;9.27;100.00;95814.66;5071846;28;20210;-58
2022/11/04 06:34:37;;;;;;;4.23;0.90;;;;;;;9.29;100.00;95813.50;5074941;28;20245;-59
2022/11/04 06:37:04;;;;;;;1.27;1.00;;;;;;;9.23;100.00;95813.31;5078632;28;20266;-59
2022/11/04 06:39:31;;;;;;;8.13;1.03;;;;;;;9.25;100.00;95808.69;5076306;28;20233;-58
2022/11/04 06:41:57;;;;;;;2.37;0.90;;;;;;;9.23;100.00;95815.94;5077558;28;20271;-59
2022/11/04 06:44:24;;;;;;;1.70;0.60;;;;;;;9.13;100.00;95807.31;5074738;28;20230;-59
2022/11/04 06:46:51;;;;;;;5.00;1.07;;;;;;;9.09;100.00;95811.22;5074034;28;20704;-59
2022/11/04 06:49:22;;;;;;;3.93;1.90;;;;;;;9.07;100.00;95807.94;5074584;28;20317;-59
2022/11/04 06:51:51;;;;;;;4.77;2.60;;;;;;;9.12;100.00;95813.56;5074346;28;20199;-60
2022/11/04 06:54:18;;;;;;;1.20;0.97;;;;;;;9.19;100.00;95804.88;5073482;28;20226;-58
2022/11/04 06:56:45;;;;;;;2.70;0.70;;;;;;;9.08;100.00;95799.84;5072617;28;20281;-59
2022/11/04 06:59:15;;;;;;;0.67;0.57;;;;;;;9.06;100.00;95787.81;5073141;28;20289;-60
2022/11/04 07:01:42;;;;;;;1.47;1.10;;;;;;;9.06;100.00;95793.06;5073346;28;20218;-58
2022/11/04 07:04:09;;;;;;;1.57;0.90;;;;;;;9.09;100.00;95793.59;5073116;28;20329;-57
2022/11/04 07:06:36;;;;;;;0.97;0.60;;;;;;;9.05;100.00;95781.69;5074058;28;20237;-58
2022/11/04 07:09:04;;;;;;;0.73;0.73;;;;;;;9.04;100.00;95797.66;5075170;28;20226;-57
2022/11/04 07:11:32;;;;;;;4.23;0.97;;;;;;;9.06;100.00;95796.53;5074838;28;20210;-58
2022/11/04 07:13:58;;;;;;;1.50;0.70;;;;;;;9.14;100.00;95788.66;5075658;28;20746;-57
2022/11/04 07:16:25;;;;;;;2.43;1.13;;;;;;;9.15;100.00;95784.22;5076170;28;20218;-57
2022/11/04 07:18:54;;;;;;;3.33;0.90;;;;;;;9.17;100.00;95785.75;5077172;28;20234;-59
2022/11/04 07:21:20;;;;;;;1.93;1.03;;;;;;;9.24;100.00;95772.75;5077453;28;20238;-60
2022/11/04 07:23:48;;;;;;;1.27;0.50;;;;;;;9.22;100.00;95774.72;5080390;28;20225;-59
2022/11/04 07:26:16;;;;;;;1.40;0.67;;;;;;;9.16;100.00;95765.63;5080528;28;20206;-59
2022/11/04 07:28:43;;;;;;;0.67;0.67;;;;;;;9.19;100.00;95757.38;5075016;28;20293;-59
2022/11/04 07:31:11;;;;;;;1.27;0.73;;;;;;;9.20;100.00;95758.22;5072225;28;20337;-59
2022/11/04 07:33:38;;;;;;;1.73;1.27;;;;;;;9.24;100.00;95743.75;5070156;28;20222;-59
2022/11/04 07:36:05;;;;;;;1.10;1.00;;;;;;;9.27;100.00;95751.34;5071408;28;20285;-58
2022/11/04 07:38:32;;;;;;;2.30;1.57;;;;;;;9.36;100.00;95747.75;5071501;28;20230;-59
2022/11/04 07:41:01;;;;;;;2.33;1.37;;;;;;;9.41;100.00;95748.94;5070955;28;20237;-59
2022/11/04 07:43:29;;;;;;;2.17;0.80;;;;;;;9.44;100.00;95745.16;5071151;28;20312;-57
2022/11/04 07:46:00;;;;;;;2.77;0.97;;;;;;;9.54;100.00;95739.75;5077341;28;20209;-58
2022/11/04 07:48:26;;;;;;;0.43;0.30;;;;;;;9.62;100.00;95731.88;5071110;28;20226;-59
2022/11/04 07:50:55;;;;;;;0.90;0.70;;;;;;;9.69;100.00;95738.16;5071282;28;20286;-57
2022/11/04 07:53:22;;;;;;;1.30;0.90;;;;;;;9.77;100.00;95739.03;5071086;28;20199;-59
2022/11/04 07:55:50;;;;;;;1.67;0.53;;;;;;;9.84;100.00;95734.75;5070772;28;20233;-60
2022/11/04 07:58:17;;;;;;;0.60;0.60;;;;;;;9.88;100.00;95738.72;5070127;28;20649;-58
2022/11/04 08:00:45;;;;;;;0.67;0.67;;;;;;;9.97;100.00;95739.56;5070890;28;20206;-58
2022/11/04 08:03:11;;;;;;;2.20;0.63;;;;;;;10.05;100.00;95739.59;5070711;28;20281;-59
2022/11/04 08:05:38;;;;;;;0.73;0.63;;;;;;;10.10;99.75;95747.03;5072014;28;20202;-59
2022/11/04 08:08:05;;;;;;;0.70;0.60;;;;;;;10.19;97.94;95744.28;5074334;28;20260;-60
2022/11/04 08:10:32;;;;;;;0.77;0.60;;;;;;;10.23;97.88;95747.44;5075379;28;20210;-59
2022/11/04 08:12:58;;;;;;;0.80;0.40;;;;;;;10.35;100.00;95754.88;5075196;28;20271;-59
2022/11/04 08:15:25;;;;;;;1.00;0.80;;;;;;;10.34;95.40;95750.59;5075231;28;20230;-59
2022/11/04 08:17:53;;;;;;;1.30;0.80;;;;;;;10.42;94.76;95755.03;5075137;28;20221;-59
2022/11/04 08:20:20;;;;;;;1.80;0.63;;;;;;;10.48;95.92;95757.03;5075099;28;20225;-59
2022/11/04 08:22:46;;;;;;;1.90;0.80;;;;;;;10.53;95.02;95760.00;5074918;28;20301;-58
2022/11/04 08:25:14;;;;;;;1.53;0.67;;;;;;;10.60;94.23;95771.56;5074859;28;20201;-58
2022/11/04 08:27:40;;;;;;;0.60;0.60;;;;;;;10.67;93.36;95775.22;5074386;28;20210;-59
2022/11/04 08:30:09;;;;;;;1.70;0.80;;;;;;;10.71;92.81;95779.19;5075064;28;20285;-59
2022/11/04 08:32:37;;;;;;;2.93;0.80;;;;;;;10.76;92.39;95776.88;5074245;28;20206;-58
2022/11/04 08:35:05;;;;;;;2.23;0.60;;;;;;;10.80;92.21;95783.50;5074904;28;20326;-60
2022/11/04 08:37:32;;;;;;;1.10;0.70;;;;;;;10.87;98.54;95783.66;5075120;28;20286;-60
2022/11/04 08:39:59;;;;;;;1.90;0.90;;;;;;;10.90;92.35;95786.81;5074211;28;20710;-60
2022/11/04 08:42:26;;;;;;;1.33;0.70;;;;;;;10.94;93.42;95782.00;5074529;28;20229;-60
2022/11/04 08:44:53;;;;;;;1.03;0.80;;;;;;;10.93;89.08;95781.19;5075015;28;20209;-60
2022/11/04 08:47:19;;;;;;;3.03;0.50;;;;;;;11.01;88.58;95774.22;5073083;28;20281;-59
2022/11/04 08:49:46;;;;;;;1.40;0.70;;;;;;;11.09;88.50;95772.38;5074066;28;20336;-58
2022/11/04 08:52:14;;;;;;;1.20;0.70;;;;;;;11.13;88.23;95770.22;5074706;28;20290;-58
2022/11/04 08:54:40;;;;;;;1.40;0.63;;;;;;;11.17;87.76;95763.63;5074217;28;20321;-60
2022/11/04 08:57:08;;;;;;;0.97;0.60;;;;;;;11.23;85.22;95757.66;5074307;28;20230;-59
2022/11/04 08:59:34;;;;;;;1.10;0.70;;;;;;;11.29;88.61;95749.88;5074519;28;20213;-59
2022/11/04 09:02:01;;;;;;;1.20;0.80;;;;;;;11.36;86.21;95750.03;5074125;28;20590;-60
2022/11/04 09:04:29;;;;;;;2.17;0.83;;;;;;;11.37;89.09;95743.75;5074103;28;20277;-60
2022/11/04 09:06:56;;;;;;;0.63;0.60;;;;;;;11.46;91.96;95748.00;5074209;28;20298;-59
2022/11/04 09:09:24;;;;;;;1.30;0.60;;;;;;;11.53;87.75;95743.69;5073653;28;20199;-58
2022/11/04 09:11:50;;;;;;;0.50;0.50;;;;;;;11.57;89.05;95749.47;5074278;28;20286;-58
2022/11/04 09:14:19;;;;;;;1.20;0.50;;;;;;;11.57;86.08;95745.00;5073752;28;20622;-59
2022/11/04 09:16:46;;;;;;;1.97;0.67;;;;;;;11.61;85.05;95743.66;5073391;28;20223;-60
2022/11/04 09:19:12;;;;;;;0.77;0.53;;;;;;;11.62;84.27;95744.50;5075089;28;20293;-60
2022/11/04 09:21:39;;;;;;;2.93;0.80;;;;;;;11.63;88.58;95740.81;5077157;28;20234;-59
2022/11/04 09:24:07;;;;;;;2.03;0.80;;;;;;;11.68;84.38;95747.28;5077302;28;20293;-59
2022/11/04 09:26:35;;;;;;;3.73;1.03;;;;;;;11.61;82.75;95748.94;5073941;28;20285;-59
2022/11/04 09:29:02;;;;;;;1.77;0.63;;;;;;;11.66;83.28;95751.91;5073877;28;20289;-59
2022/11/04 09:31:30;;;;;;;2.23;0.57;;;;;;;11.68;84.50;95752.56;5073370;28;20202;-59
2022/11/04 09:33:57;;;;;;;3.93;0.60;;;;;;;11.71;85.24;95756.72;5072861;28;20294;-60
2022/11/04 09:36:25;;;;;;;4.20;0.87;;;;;;;11.77;83.68;95745.44;5073518;28;20635;-59
2022/11/04 09:38:51;;;;;;;1.27;0.70;;;;;;;11.84;85.03;95751.69;5073986;28;20269;-59
2022/11/04 09:41:32;;;;;;;1.83;0.83;;;;;;;11.93;83.54;95745.38;5077524;28;20227;-58
2022/11/04 09:44:04;;;;;;;5.33;1.20;;;;;;;12.08;83.73;95732.22;5086513;28;20205;-60
2022/11/04 09:46:32;;;;;;;4.00;0.70;;;;;;;12.19;80.91;95734.44;5079315;28;20211;-58
2022/11/04 09:49:02;;;;;;;0.97;0.60;;;;;;;12.34;82.85;95738.00;5080193;28;20254;-60
2022/11/04 09:51:29;;;;;;;1.37;0.63;;;;;;;12.43;79.58;95742.25;5088293;28;20226;-60
2022/11/04 09:53:58;;;;;;;1.17;0.40;;;;;;;12.51;78.77;95750.16;5083184;28;20214;-60
2022/11/04 09:56:29;;;;;;;2.33;0.80;;;;;;;12.52;77.22;95743.84;5075542;28;20253;-58
2022/11/04 09:58:55;;;;;;;0.70;0.70;;;;;;;12.61;77.38;95739.31;5073996;28;20212;-58
2022/11/04 10:01:28;;;;;;;1.13;0.60;;;;;;;12.71;77.68;95742.56;5073488;28;20233;-58
2022/11/04 10:04:08;;;;;;;0.97;0.50;;;;;;;12.79;77.07;95739.81;5072943;28;20234;-60
2022/11/04 10:06:43;;;;;;;1.73;0.77;;;;;;;12.87;76.56;95734.44;5073760;28;20285;-58
2022/11/04 10:09:21;;;;;;;6.73;1.03;;;;;;;12.96;74.38;95738.69;5077199;28;20256;-58
2022/11/04 10:11:57;;;;;;;1.30;1.10;;;;;;;12.93;76.38;95741.72;5078305;28;20257;-59
2022/11/04 10:14:36;;;;;;;2.57;0.90;;;;;;;12.82;76.25;95734.97;5073973;28;20257;-60
2022/11/04 10:17:09;;;;;;;1.80;0.73;;;;;;;12.76;78.61;95737.53;5072389;28;20769;-59
2022/11/04 10:19:45;;;;;;;1.50;0.80;;;;;;;12.76;76.13;95742.81;5072758;28;20198;-58
2022/11/04 10:22:19;;;;;;;1.77;0.90;;;;;;;12.67;78.13;95739.44;5072438;28;20237;-60
2022/11/04 10:24:55;;;;;;;2.07;0.80;;;;;;;12.61;75.81;95734.81;5072400;28;20205;-57
2022/11/04 10:27:25;;;;;;;1.63;0.80;;;;;;;12.64;75.74;95733.66;5072005;28;20218;-58
2022/11/04 10:29:55;;;;;;;1.00;0.70;;;;;;;12.63;76.61;95722.22;5071379;28;20627;-56
2022/11/04 10:32:28;;;;;;;3.67;1.03;;;;;;;12.67;76.97;95720.84;5072083;28;20309;-55
2022/11/04 10:34:57;;;;;;;1.43;0.60;;;;;;;12.69;75.74;95718.00;5071588;28;20214;-59
2022/11/04 10:37:25;;;;;;;3.07;0.97;;;;;;;12.66;76.07;95716.56;5071658;28;20278;-60
2022/11/04 10:39:53;;;;;;;3.00;1.00;;;;;;;12.60;76.14;95711.13;5070362;28;20197;-60
2022/11/04 10:42:21;;;;;;;3.90;0.90;;;;;;;12.50;77.82;95714.03;5070557;28;20294;-58
2022/11/04 10:44:50;;;;;;;2.47;0.97;;;;;;;12.51;77.61;95718.31;5070046;28;20206;-60
2022/11/04 10:47:26;;;;;;;1.30;0.67;;;;;;;12.67;78.06;95714.72;5070186;28;20640;-59
2022/11/04 10:50:19;;;;;;;1.60;0.90;;;;;;;12.60;77.75;95716.44;5070276;28;20265;-59
2022/11/04 10:52:45;;;;;;;0.80;0.80;;;;;;;12.51;77.30;95707.72;5071175;28;20277;-60
2022/11/04 10:55:19;;;;;;;1.83;0.53;;;;;;;12.54;76.30;95710.00;5071296;28;20677;-61
2022/11/04 10:57:46;;;;;;;1.83;0.67;;;;;;;12.48;77.51;95706.25;5071834;28;20278;-59
2022/11/04 11:00:32;;;;;;;0.77;0.67;;;;;;;12.44;80.85;95706.78;5071472;28;20293;-59
2022/11/04 11:03:00;;;;;;;5.63;0.97;;;;;;;12.45;79.82;95696.00;5071453;28;20283;-60
2022/11/04 11:05:28;;;;;;;1.67;0.63;;;;;;;12.48;81.26;95702.75;5071768;28;20199;-59
2022/11/04 11:07:56;;;;;;;2.23;0.97;;;;;;;12.51;81.35;95702.41;5071648;28;20206;-59
2022/11/04 11:10:25;;;;;;;2.77;1.07;;;;;;;12.45;78.30;95697.81;5071871;28;20348;-59
2022/11/04 11:12:54;;;;;;;2.63;0.93;;;;;;;12.47;79.86;95701.09;5071430;28;20290;-60
2022/11/04 11:15:31;;;;;;;2.73;1.00;;;;;;;12.46;82.72;95700.31;5071270;28;20276;-59
2022/11/04 11:18:11;;;;;;;1.50;0.70;;;;;;;12.44;80.50;95702.31;5071606;28;21351;-59
2022/11/04 11:20:39;;;;;;;1.27;0.77;;;;;;;12.48;80.26;95697.47;5071530;28;20279;-60
2022/11/04 11:23:24;;;;;;;2.23;1.53;;;;;;;12.56;80.45;95700.06;5070661;28;20234;-59
2022/11/04 11:25:50;;;;;;;2.33;1.60;;;;;;;12.58;81.06;95687.44;5070744;28;20285;-60
2022/11/04 11:28:22;;;;;;;1.97;1.00;;;;;;;12.59;77.62;95683.78;5070907;28;20202;-60
2022/11/04 11:30:56;;;;;;;2.23;1.87;;;;;;;12.55;78.20;95692.28;5070924;28;20297;-60
2022/11/04 11:33:26;;;;;;;1.13;1.00;;;;;;;12.51;79.91;95683.84;5070705;28;20248;-60
2022/11/04 11:35:56;;;;;;;2.30;0.80;;;;;;;12.54;79.95;95690.66;5070613;28;20214;-59
2022/11/04 11:38:26;;;;;;;0.70;0.70;;;;;;;12.57;80.35;95683.16;5070701;28;20228;-59
2022/11/04 11:40:56;;;;;;;1.63;0.70;;;;;;;12.57;82.45;95679.69;5070877;28;20226;-59
2022/11/04 11:43:25;;;;;;;1.70;0.90;;;;;;;12.64;80.92;95673.47;5071167;28;20230;-59
2022/11/04 11:45:53;;;;;;;1.43;0.73;;;;;;;12.65;77.90;95677.75;5070633;28;20241;-60
2022/11/04 11:48:32;;;;;;;1.47;0.90;;;;;;;12.77;79.24;95671.03;5070567;28;20271;-59
2022/11/04 11:51:00;;;;;;;3.03;1.23;;;;;;;12.87;76.87;95676.91;5071341;28;20255;-59
2022/11/04 11:53:32;;;;;;;1.57;0.80;;;;;;;12.98;76.07;95668.50;5070872;28;20286;-59
2022/11/04 11:56:08;;;;;;;1.80;0.80;;;;;;;13.15;78.40;95678.97;5070616;28;20210;-59
2022/11/04 11:58:39;;;;;;;1.53;0.83;;;;;;;13.26;75.08;95663.41;5070818;28;20237;-60
2022/11/04 12:01:11;;;;;;;0.70;0.70;;;;;;;13.44;74.97;95673.66;5071275;28;20274;-59
2022/11/04 12:03:42;;;;;;;3.80;1.00;;;;;;;13.59;75.36;95671.00;5070774;28;21610;-59
2022/11/04 12:06:22;;;;;;;2.07;1.10;;;;;;;13.72;74.63;95666.66;5071345;28;20515;-58
2022/11/04 12:09:02;;;;;;;2.33;1.20;;;;;;;13.83;72.37;95673.34;5071667;28;20289;-60
2022/11/04 12:11:35;;;;;;;4.37;1.20;;;;;;;13.83;72.13;95673.34;5077761;28;20267;-59
2022/11/04 12:14:05;;;;;;;1.20;0.80;;;;;;;13.89;73.13;95672.59;5091404;28;20225;-59